createdAt,value
2022-10-25T00:00:50.603Z,1014.93
2022-10-25T00:01:51.302Z,1014.93
2022-10-25T00:02:51.971Z,1014.95
2022-10-25T00:03:52.571Z,1015.00
2022-10-25T00:04:53.221Z,1014.93
2022-10-25T00:05:53.822Z,1014.97
2022-10-25T00:06:54.422Z,1014.94
2022-10-25T00:07:55.817Z,1014.96
2022-10-25T00:08:56.415Z,1014.90
2022-10-25T00:09:57.014Z,1014.93
2022-10-25T00:10:57.612Z,1014.90
2022-10-25T00:11:58.209Z,1014.90
2022-10-25T00:12:58.808Z,1014.84
2022-10-25T00:13:59.406Z,1014.83
2022-10-25T00:15:00.006Z,1014.88
2022-10-25T00:16:00.603Z,1014.85
2022-10-25T00:17:01.203Z,1014.80
2022-10-25T00:18:01.802Z,1014.82
2022-10-25T00:19:02.401Z,1014.77
2022-10-25T00:20:03.000Z,1014.74
2022-10-25T00:22:04.201Z,1014.76
2022-10-25T00:23:04.796Z,1014.70
2022-10-25T00:24:05.396Z,1014.71
2022-10-25T00:25:05.996Z,1014.71
2022-10-25T00:26:06.588Z,1014.76
2022-10-25T00:27:07.987Z,1014.66
2022-10-25T00:28:08.587Z,1014.75
2022-10-25T00:29:09.235Z,1014.66
2022-10-25T00:30:09.871Z,1014.60
2022-10-25T00:31:10.470Z,1014.60
2022-10-25T00:32:11.069Z,1014.54
2022-10-25T00:33:11.671Z,1014.50
2022-10-25T00:34:12.322Z,1014.51
2022-10-25T00:35:12.924Z,1014.51
2022-10-25T00:36:13.564Z,1014.52
2022-10-25T00:37:14.166Z,1014.60
2022-10-25T00:38:14.766Z,1014.53
2022-10-25T00:39:15.419Z,1014.61
2022-10-25T00:40:16.072Z,1014.61
2022-10-25T00:41:16.669Z,1014.63
2022-10-25T00:42:18.121Z,1014.68
2022-10-25T00:43:18.732Z,1014.70
2022-10-25T00:44:19.326Z,1014.69
2022-10-25T00:45:19.971Z,1014.65
2022-10-25T00:46:20.613Z,1014.66
2022-10-25T00:47:21.250Z,1014.70
2022-10-25T00:48:21.845Z,1014.70
2022-10-25T00:49:22.443Z,1014.66
2022-10-25T00:50:23.190Z,1014.72
2022-10-25T00:51:23.790Z,1014.63
2022-10-25T00:52:24.393Z,1014.61
2022-10-25T00:53:24.991Z,1014.60
2022-10-25T00:54:25.595Z,1014.60
2022-10-25T00:55:26.189Z,1014.53
2022-10-25T00:56:26.787Z,1014.56
2022-10-25T00:57:27.384Z,1014.52
2022-10-25T00:58:27.985Z,1014.55
2022-10-25T00:59:28.587Z,1014.48
2022-10-25T01:00:29.184Z,1014.46
2022-10-25T01:01:29.871Z,1014.47
2022-10-25T01:02:30.607Z,1014.40
2022-10-25T01:03:31.211Z,1014.40
2022-10-25T01:04:31.813Z,1014.34
2022-10-25T01:05:32.409Z,1014.29
2022-10-25T01:06:33.012Z,1014.34
2022-10-25T01:07:33.613Z,1014.29
2022-10-25T01:08:34.215Z,1014.26
2022-10-25T01:09:34.816Z,1014.30
2022-10-25T01:10:35.416Z,1014.25
2022-10-25T01:11:36.021Z,1014.25
2022-10-25T01:12:36.620Z,1014.17
2022-10-25T01:13:37.221Z,1014.16
2022-10-25T01:14:37.824Z,1014.13
2022-10-25T01:15:38.420Z,1014.20
2022-10-25T01:16:39.020Z,1014.12
2022-10-25T01:17:39.621Z,1014.10
2022-10-25T01:18:40.217Z,1014.04
2022-10-25T01:19:40.821Z,1013.97
2022-10-25T01:20:41.411Z,1014.01
2022-10-25T01:21:42.214Z,1013.92
2022-10-25T01:22:42.870Z,1013.92
2022-10-25T01:23:43.508Z,1013.92
2022-10-25T01:24:44.106Z,1013.89
2022-10-25T01:25:44.707Z,1013.87
2022-10-25T01:26:45.308Z,1013.89
2022-10-25T01:27:45.983Z,1013.84
2022-10-25T01:28:46.604Z,1013.88
2022-10-25T01:29:47.203Z,1013.82
2022-10-25T01:30:47.803Z,1013.84
2022-10-25T01:31:48.408Z,1013.83
2022-10-25T01:32:49.237Z,1013.84
2022-10-25T01:33:50.003Z,1013.88
2022-10-25T01:34:51.450Z,1013.90
2022-10-25T01:35:52.049Z,1013.87
2022-10-25T01:36:52.649Z,1013.91
2022-10-25T01:37:53.250Z,1013.96
2022-10-25T01:38:53.850Z,1013.85
2022-10-25T01:39:54.444Z,1013.90
2022-10-25T01:40:55.042Z,1013.84
2022-10-25T01:41:55.644Z,1013.85
2022-10-25T01:42:56.249Z,1013.88
2022-10-25T01:43:56.845Z,1013.93
2022-10-25T01:44:58.294Z,1013.88
2022-10-25T01:45:58.995Z,1013.92
2022-10-25T01:46:59.595Z,1013.95
2022-10-25T01:48:00.193Z,1013.88
2022-10-25T01:49:00.943Z,1013.94
2022-10-25T01:50:01.695Z,1013.93
2022-10-25T01:51:02.292Z,1013.93
2022-10-25T01:52:02.889Z,1013.88
2022-10-25T01:53:03.490Z,1013.85
2022-10-25T01:54:04.087Z,1013.81
2022-10-25T01:55:04.686Z,1013.84
2022-10-25T01:56:05.286Z,1013.80
2022-10-25T01:57:05.882Z,1013.81
2022-10-25T01:58:06.526Z,1013.81
2022-10-25T01:59:07.124Z,1013.80
2022-10-25T02:00:07.729Z,1013.78
2022-10-25T02:01:08.496Z,1013.75
2022-10-25T02:02:09.160Z,1013.81
2022-10-25T02:03:09.760Z,1013.69
2022-10-25T02:04:10.362Z,1013.74
2022-10-25T02:05:10.962Z,1013.72
2022-10-25T02:06:11.562Z,1013.60
2022-10-25T02:07:12.163Z,1013.68
2022-10-25T02:08:12.760Z,1013.69
2022-10-25T02:09:13.358Z,1013.63
2022-10-25T02:10:13.958Z,1013.57
2022-10-25T02:11:14.557Z,1013.68
2022-10-25T02:12:15.158Z,1013.63
2022-10-25T02:13:15.784Z,1013.60
2022-10-25T02:14:16.383Z,1013.57
2022-10-25T02:15:16.986Z,1013.57
2022-10-25T02:16:17.583Z,1013.51
2022-10-25T02:17:18.182Z,1013.65
2022-10-25T02:18:18.800Z,1013.57
2022-10-25T02:19:19.387Z,1013.57
2022-10-25T02:20:19.983Z,1013.54
2022-10-25T02:21:20.587Z,1013.51
2022-10-25T02:22:21.184Z,1013.47
2022-10-25T02:23:21.784Z,1013.45
2022-10-25T02:24:22.377Z,1013.44
2022-10-25T02:25:22.980Z,1013.41
2022-10-25T02:26:23.578Z,1013.46
2022-10-25T02:27:24.178Z,1013.40
2022-10-25T02:28:24.775Z,1013.37
2022-10-25T02:29:25.373Z,1013.40
2022-10-25T02:30:25.972Z,1013.41
2022-10-25T02:31:26.566Z,1013.45
2022-10-25T02:32:27.166Z,1013.38
2022-10-25T02:33:27.765Z,1013.35
2022-10-25T02:34:28.358Z,1013.36
2022-10-25T02:35:28.960Z,1013.32
2022-10-25T02:36:29.557Z,1013.27
2022-10-25T02:37:30.156Z,1013.38
2022-10-25T02:38:30.759Z,1013.27
2022-10-25T02:39:31.845Z,1013.31
2022-10-25T02:40:33.401Z,1013.20
2022-10-25T02:41:34.000Z,1013.26
2022-10-25T02:42:34.596Z,1013.20
2022-10-25T02:43:35.205Z,1013.20
2022-10-25T02:44:35.796Z,1013.18
2022-10-25T02:45:36.451Z,1013.20
2022-10-25T02:46:37.048Z,1013.17
2022-10-25T02:47:37.646Z,1013.20
2022-10-25T02:48:38.244Z,1013.19
2022-10-25T02:49:38.847Z,1013.08
2022-10-25T02:50:39.596Z,1013.05
2022-10-25T02:51:40.252Z,1013.03
2022-10-25T02:52:40.910Z,1012.94
2022-10-25T02:53:42.358Z,1012.93
2022-10-25T02:54:42.959Z,1012.89
2022-10-25T02:55:43.559Z,1012.85
2022-10-25T02:56:44.176Z,1012.80
2022-10-25T02:57:44.770Z,1012.89
2022-10-25T02:58:45.370Z,1012.89
2022-10-25T02:59:45.966Z,1012.79
2022-10-25T03:00:46.584Z,1012.85
2022-10-25T03:01:47.338Z,1012.80
2022-10-25T03:02:48.352Z,1012.84
2022-10-25T03:03:49.203Z,1012.78
2022-10-25T03:04:49.798Z,1012.78
2022-10-25T03:05:50.397Z,1012.69
2022-10-25T03:06:50.992Z,1012.69
2022-10-25T03:07:51.587Z,1012.75
2022-10-25T03:08:52.250Z,1012.75
2022-10-25T03:09:52.852Z,1012.70
2022-10-25T03:10:53.453Z,1012.68
2022-10-25T03:11:54.054Z,1012.61
2022-10-25T03:12:54.657Z,1012.60
2022-10-25T03:13:55.259Z,1012.58
2022-10-25T03:14:55.852Z,1012.57
2022-10-25T03:15:56.452Z,1012.58
2022-10-25T03:16:57.052Z,1012.60
2022-10-25T03:17:57.653Z,1012.57
2022-10-25T03:18:58.263Z,1012.60
2022-10-25T03:19:58.852Z,1012.60
2022-10-25T03:20:59.684Z,1012.62
2022-10-25T03:22:00.347Z,1012.59
2022-10-25T03:23:00.948Z,1012.60
2022-10-25T03:24:01.550Z,1012.60
2022-10-25T03:25:02.199Z,1012.56
2022-10-25T03:26:02.851Z,1012.57
2022-10-25T03:27:03.437Z,1012.48
2022-10-25T03:28:04.036Z,1012.51
2022-10-25T03:29:04.635Z,1012.50
2022-10-25T03:30:05.234Z,1012.42
2022-10-25T03:31:05.835Z,1012.46
2022-10-25T03:32:06.434Z,1012.49
2022-10-25T03:33:07.032Z,1012.47
2022-10-25T03:34:07.631Z,1012.45
2022-10-25T03:35:08.235Z,1012.51
2022-10-25T03:36:08.826Z,1012.42
2022-10-25T03:37:09.489Z,1012.44
2022-10-25T03:38:10.088Z,1012.47
2022-10-25T03:39:10.689Z,1012.40
2022-10-25T03:40:11.291Z,1012.39
2022-10-25T03:41:11.960Z,1012.40
2022-10-25T03:42:12.558Z,1012.33
2022-10-25T03:43:13.191Z,1012.34
2022-10-25T03:44:13.778Z,1012.36
2022-10-25T03:45:14.386Z,1012.35
2022-10-25T03:46:15.045Z,1012.34
2022-10-25T03:47:15.651Z,1012.34
2022-10-25T03:48:16.252Z,1012.34
2022-10-25T03:49:16.851Z,1012.35
2022-10-25T03:50:17.503Z,1012.46
2022-10-25T03:51:18.105Z,1012.40
2022-10-25T03:52:18.708Z,1012.41
2022-10-25T03:53:19.306Z,1012.41
2022-10-25T03:54:19.957Z,1012.28
2022-10-25T03:55:20.608Z,1012.29
2022-10-25T03:56:21.210Z,1012.33
2022-10-25T03:57:21.803Z,1012.31
2022-10-25T03:58:22.403Z,1012.30
2022-10-25T03:59:23.003Z,1012.27
2022-10-25T04:00:23.614Z,1012.26
2022-10-25T04:01:24.317Z,1012.37
2022-10-25T04:02:25.015Z,1012.22
2022-10-25T04:03:25.612Z,1012.28
2022-10-25T04:04:26.213Z,1012.19
2022-10-25T04:05:26.861Z,1012.20
2022-10-25T04:06:27.462Z,1012.20
2022-10-25T04:07:28.906Z,1012.20
2022-10-25T04:08:29.505Z,1012.17
2022-10-25T04:09:30.103Z,1012.20
2022-10-25T04:10:30.703Z,1012.08
2022-10-25T04:11:31.297Z,1012.06
2022-10-25T04:12:31.901Z,1012.05
2022-10-25T04:13:32.504Z,1012.09
2022-10-25T04:14:33.097Z,1012.08
2022-10-25T04:15:33.696Z,1012.14
2022-10-25T04:16:34.297Z,1012.06
2022-10-25T04:17:34.893Z,1012.20
2022-10-25T04:18:35.491Z,1012.19
2022-10-25T04:19:36.092Z,1012.19
2022-10-25T04:20:36.688Z,1012.19
2022-10-25T04:21:37.287Z,1012.25
2022-10-25T04:23:38.487Z,1012.19
2022-10-25T04:24:39.090Z,1012.22
2022-10-25T04:25:39.762Z,1012.16
2022-10-25T04:26:40.361Z,1012.18
2022-10-25T04:27:40.959Z,1012.19
2022-10-25T04:28:41.565Z,1012.13
2022-10-25T04:29:42.164Z,1012.12
2022-10-25T04:30:42.766Z,1012.07
2022-10-25T04:31:43.374Z,1012.05
2022-10-25T04:32:44.070Z,1012.05
2022-10-25T04:33:48.050Z,1012.01
2022-10-25T04:34:46.402Z,1012.13
2022-10-25T04:35:47.001Z,1012.05
2022-10-25T04:36:47.605Z,1012.03
2022-10-25T04:37:48.200Z,1012.04
2022-10-25T04:38:48.804Z,1012.03
2022-10-25T04:39:49.406Z,1012.05
2022-10-25T04:40:50.010Z,1011.96
2022-10-25T04:41:50.611Z,1012.01
2022-10-25T04:42:51.211Z,1011.98
2022-10-25T04:43:51.821Z,1011.91
2022-10-25T04:44:52.412Z,1011.92
2022-10-25T04:45:53.005Z,1012.00
2022-10-25T04:46:53.604Z,1011.96
2022-10-25T04:47:54.202Z,1012.00
2022-10-25T04:48:54.802Z,1011.99
2022-10-25T04:49:55.396Z,1012.07
2022-10-25T04:50:55.996Z,1011.97
2022-10-25T04:51:56.600Z,1011.96
2022-10-25T04:52:57.191Z,1011.99
2022-10-25T04:53:57.790Z,1011.97
2022-10-25T04:54:58.391Z,1011.93
2022-10-25T04:55:59.904Z,1011.93
2022-10-25T04:57:01.355Z,1011.93
2022-10-25T04:58:01.951Z,1011.90
2022-10-25T04:59:02.552Z,1011.91
2022-10-25T05:00:03.153Z,1011.93
2022-10-25T05:01:03.814Z,1011.84
2022-10-25T05:02:04.411Z,1011.81
2022-10-25T05:03:07.262Z,1011.89
2022-10-25T05:04:06.607Z,1011.93
2022-10-25T05:05:07.208Z,1011.93
2022-10-25T05:06:08.656Z,1011.90
2022-10-25T05:07:09.259Z,1011.90
2022-10-25T05:08:09.903Z,1011.90
2022-10-25T05:09:10.502Z,1011.81
2022-10-25T05:10:11.103Z,1011.93
2022-10-25T05:11:11.706Z,1011.88
2022-10-25T05:12:12.304Z,1011.90
2022-10-25T05:13:12.908Z,1011.92
2022-10-25T05:14:13.510Z,1011.89
2022-10-25T05:15:14.909Z,1011.98
2022-10-25T05:16:15.552Z,1012.04
2022-10-25T05:17:16.204Z,1012.02
2022-10-25T05:18:16.864Z,1012.06
2022-10-25T05:19:17.463Z,1011.92
2022-10-25T05:20:18.065Z,1011.99
2022-10-25T05:21:18.703Z,1011.98
2022-10-25T05:22:19.308Z,1011.99
2022-10-25T05:23:19.911Z,1012.05
2022-10-25T05:24:20.506Z,1012.12
2022-10-25T05:25:21.107Z,1012.13
2022-10-25T05:26:21.705Z,1012.13
2022-10-25T05:27:22.300Z,1012.14
2022-10-25T05:28:22.900Z,1012.17
2022-10-25T05:29:23.499Z,1012.09
2022-10-25T05:30:24.094Z,1012.06
2022-10-25T05:31:24.752Z,1012.09
2022-10-25T05:32:26.189Z,1012.09
2022-10-25T05:33:26.837Z,1012.14
2022-10-25T05:34:27.573Z,1012.23
2022-10-25T05:35:28.226Z,1012.21
2022-10-25T05:36:28.825Z,1012.19
2022-10-25T05:37:29.427Z,1012.27
2022-10-25T05:38:32.970Z,1012.28
2022-10-25T05:39:31.621Z,1012.16
2022-10-25T05:40:32.220Z,1012.22
2022-10-25T05:41:36.081Z,1012.13
2022-10-25T05:42:34.414Z,1012.04
2022-10-25T05:43:35.016Z,1012.02
2022-10-25T05:44:35.607Z,1012.02
2022-10-25T05:45:36.207Z,1012.02
2022-10-25T05:46:36.808Z,1012.04
2022-10-25T05:47:37.408Z,1012.10
2022-10-25T05:48:38.058Z,1012.02
2022-10-25T05:49:38.656Z,1011.99
2022-10-25T05:50:39.284Z,1011.99
2022-10-25T05:51:39.870Z,1012.05
2022-10-25T05:52:40.462Z,1011.98
2022-10-25T05:53:41.057Z,1012.02
2022-10-25T05:54:41.654Z,1012.02
2022-10-25T05:55:42.254Z,1012.01
2022-10-25T05:56:42.855Z,1012.07
2022-10-25T05:57:43.460Z,1012.02
2022-10-25T05:58:44.055Z,1012.05
2022-10-25T05:59:44.652Z,1012.13
2022-10-25T06:00:45.248Z,1012.19
2022-10-25T06:01:46.090Z,1012.16
2022-10-25T06:02:47.130Z,1012.12
2022-10-25T06:03:47.863Z,1012.02
2022-10-25T06:04:52.223Z,1012.02
2022-10-25T06:05:50.034Z,1011.96
2022-10-25T06:06:50.638Z,1012.04
2022-10-25T06:07:51.250Z,1012.04
2022-10-25T06:08:51.835Z,1012.10
2022-10-25T06:09:52.439Z,1012.05
2022-10-25T06:10:53.040Z,1012.04
2022-10-25T06:11:53.640Z,1011.97
2022-10-25T06:12:54.242Z,1011.95
2022-10-25T06:13:54.845Z,1011.88
2022-10-25T06:14:55.440Z,1011.93
2022-10-25T06:15:56.041Z,1012.02
2022-10-25T06:16:56.641Z,1012.02
2022-10-25T06:17:58.091Z,1012.05
2022-10-25T06:18:58.689Z,1011.94
2022-10-25T06:19:59.289Z,1011.97
2022-10-25T06:20:59.895Z,1011.89
2022-10-25T06:22:00.492Z,1011.90
2022-10-25T06:23:01.090Z,1011.93
2022-10-25T06:24:01.695Z,1011.91
2022-10-25T06:25:02.291Z,1011.93
2022-10-25T06:26:02.884Z,1011.98
2022-10-25T06:27:03.483Z,1011.99
2022-10-25T06:28:04.082Z,1011.93
2022-10-25T06:29:04.679Z,1012.00
2022-10-25T06:30:05.339Z,1012.04
2022-10-25T06:31:05.936Z,1011.99
2022-10-25T06:32:06.538Z,1011.92
2022-10-25T06:33:07.137Z,1011.97
2022-10-25T06:34:07.736Z,1011.98
2022-10-25T06:35:08.332Z,1012.00
2022-10-25T06:36:09.732Z,1012.04
2022-10-25T06:37:10.330Z,1012.00
2022-10-25T06:38:10.925Z,1012.05
2022-10-25T06:39:11.531Z,1012.07
2022-10-25T06:40:12.350Z,1012.13
2022-10-25T06:41:13.069Z,1012.11
2022-10-25T06:42:13.669Z,1012.06
2022-10-25T06:43:14.273Z,1012.07
2022-10-25T06:44:14.879Z,1011.97
2022-10-25T06:45:15.542Z,1011.85
2022-10-25T06:46:16.148Z,1011.69
2022-10-25T06:47:17.931Z,1011.65
2022-10-25T06:48:18.384Z,1011.65
2022-10-25T06:49:18.986Z,1011.85
2022-10-25T06:50:19.592Z,1011.77
2022-10-25T06:51:20.228Z,1011.86
2022-10-25T06:52:20.824Z,1011.77
2022-10-25T06:53:21.425Z,1011.73
2022-10-25T06:54:22.024Z,1011.56
2022-10-25T06:55:22.616Z,1011.32
2022-10-25T06:56:23.212Z,1011.13
2022-10-25T06:57:23.809Z,1011.21
2022-10-25T06:58:24.468Z,1011.16
2022-10-25T06:59:25.127Z,1011.15
2022-10-25T07:00:25.797Z,1010.98
2022-10-25T07:01:26.457Z,1010.88
2022-10-25T07:02:27.276Z,1011.23
2022-10-25T07:03:27.920Z,1011.45
2022-10-25T07:04:28.519Z,1011.51
2022-10-25T07:05:29.123Z,1011.51
2022-10-25T07:06:29.788Z,1011.58
2022-10-25T07:07:30.388Z,1011.67
2022-10-25T07:08:30.981Z,1011.55
2022-10-25T07:09:31.577Z,1011.49
2022-10-25T07:10:32.173Z,1011.42
2022-10-25T07:11:32.792Z,1011.24
2022-10-25T07:12:33.377Z,1011.06
2022-10-25T07:13:33.980Z,1010.91
2022-10-25T07:14:34.576Z,1010.98
2022-10-25T07:15:37.456Z,1011.09
2022-10-25T07:16:36.769Z,1010.92
2022-10-25T07:17:37.368Z,1010.80
2022-10-25T07:18:37.968Z,1010.83
2022-10-25T07:19:38.569Z,1010.75
2022-10-25T07:20:39.171Z,1010.71
2022-10-25T07:21:39.769Z,1010.67
2022-10-25T07:22:40.368Z,1010.58
2022-10-25T07:23:40.976Z,1010.56
2022-10-25T07:24:41.566Z,1010.38
2022-10-25T07:25:42.164Z,1010.28
2022-10-25T07:26:42.928Z,1010.16
2022-10-25T07:27:43.526Z,1010.04
2022-10-25T07:28:44.120Z,1009.95
2022-10-25T07:29:44.721Z,1009.78
2022-10-25T07:30:45.320Z,1009.67
2022-10-25T07:31:45.915Z,1009.53
2022-10-25T07:32:46.515Z,1009.27
2022-10-25T07:33:47.112Z,1009.31
2022-10-25T07:34:47.742Z,1009.46
2022-10-25T07:35:59.038Z,1009.68
2022-10-25T07:36:49.949Z,1009.84
2022-10-25T07:37:50.546Z,1009.96
2022-10-25T07:38:51.193Z,1010.03
2022-10-25T07:39:51.798Z,1010.11
2022-10-25T07:40:52.466Z,1010.07
2022-10-25T07:41:53.064Z,1010.14
2022-10-25T07:42:53.662Z,1010.12
2022-10-25T07:43:54.264Z,1010.22
2022-10-25T07:44:54.863Z,1010.30
2022-10-25T07:45:55.465Z,1010.24
2022-10-25T07:46:56.112Z,1010.28
2022-10-25T07:47:56.708Z,1010.35
2022-10-25T07:48:57.307Z,1010.33
2022-10-25T07:49:57.911Z,1010.33
2022-10-25T07:50:59.359Z,1010.37
2022-10-25T07:51:59.957Z,1010.47
2022-10-25T07:53:00.656Z,1010.44
2022-10-25T07:54:01.263Z,1010.39
2022-10-25T07:55:01.858Z,1010.69
2022-10-25T07:56:02.458Z,1010.80
2022-10-25T07:57:03.055Z,1010.80
2022-10-25T07:58:03.655Z,1010.80
2022-10-25T07:59:04.251Z,1010.86
2022-10-25T08:00:04.849Z,1010.82
2022-10-25T08:01:06.353Z,1010.81
2022-10-25T08:02:06.949Z,1010.83
2022-10-25T08:03:07.634Z,1010.78
2022-10-25T08:04:08.231Z,1010.82
2022-10-25T08:05:08.828Z,1010.81
2022-10-25T08:06:09.430Z,1010.81
2022-10-25T08:07:10.032Z,1010.84
2022-10-25T08:08:10.630Z,1010.81
2022-10-25T08:09:20.353Z,1010.84
2022-10-25T08:10:12.821Z,1010.90
2022-10-25T08:11:13.417Z,1010.94
2022-10-25T08:12:14.019Z,1010.84
2022-10-25T08:13:14.618Z,1010.92
2022-10-25T08:14:15.262Z,1010.95
2022-10-25T08:15:15.855Z,1010.97
2022-10-25T08:16:16.462Z,1010.92
2022-10-25T08:17:17.074Z,1010.99
2022-10-25T08:18:17.658Z,1010.98
2022-10-25T08:19:18.257Z,1011.08
2022-10-25T08:20:18.857Z,1011.10
2022-10-25T08:21:19.458Z,1011.17
2022-10-25T08:22:20.060Z,1011.15
2022-10-25T08:23:20.726Z,1011.20
2022-10-25T08:24:21.331Z,1011.21
2022-10-25T08:25:23.596Z,1011.32
2022-10-25T08:26:23.525Z,1011.39
2022-10-25T08:27:24.127Z,1011.42
2022-10-25T08:28:24.725Z,1011.48
2022-10-25T08:29:26.177Z,1011.43
2022-10-25T08:30:26.774Z,1011.42
2022-10-25T08:31:27.373Z,1011.33
2022-10-25T08:32:27.971Z,1011.30
2022-10-25T08:33:28.566Z,1011.45
2022-10-25T08:34:32.338Z,1011.44
2022-10-25T08:35:30.755Z,1011.47
2022-10-25T08:36:31.350Z,1011.59
2022-10-25T08:37:31.946Z,1011.50
2022-10-25T08:38:32.542Z,1011.54
2022-10-25T08:39:33.138Z,1011.57
2022-10-25T08:40:33.738Z,1011.71
2022-10-25T08:41:34.337Z,1011.69
2022-10-25T08:42:34.936Z,1011.69
2022-10-25T08:43:35.535Z,1011.70
2022-10-25T08:44:36.132Z,1011.72
2022-10-25T08:45:36.729Z,1011.72
2022-10-25T08:46:37.341Z,1011.70
2022-10-25T08:47:37.926Z,1011.81
2022-10-25T08:48:38.525Z,1011.70
2022-10-25T08:49:39.171Z,1011.85
2022-10-25T08:50:39.775Z,1011.91
2022-10-25T08:51:40.486Z,1011.92
2022-10-25T08:52:41.146Z,1011.92
2022-10-25T08:53:41.830Z,1011.93
2022-10-25T08:54:42.401Z,1012.04
2022-10-25T08:55:58.758Z,1011.99
2022-10-25T08:56:57.039Z,1012.01
2022-10-25T08:57:46.486Z,1011.91
2022-10-25T08:58:47.335Z,1011.90
2022-10-25T08:59:47.928Z,1011.89
2022-10-25T09:00:48.528Z,1011.96
2022-10-25T09:01:49.220Z,1011.99
2022-10-25T09:02:49.902Z,1012.01
2022-10-25T09:03:50.541Z,1012.02
2022-10-25T09:04:51.196Z,1012.10
2022-10-25T09:05:51.797Z,1012.07
2022-10-25T09:06:53.449Z,1012.11
2022-10-25T09:07:54.046Z,1012.21
2022-10-25T09:08:54.643Z,1012.14
2022-10-25T09:09:55.242Z,1012.12
2022-10-25T09:10:55.890Z,1012.19
2022-10-25T09:11:56.487Z,1012.27
2022-10-25T09:12:57.153Z,1012.21
2022-10-25T09:13:57.736Z,1012.27
2022-10-25T09:14:58.336Z,1012.21
2022-10-25T09:15:58.933Z,1012.22
2022-10-25T09:16:59.537Z,1012.26
2022-10-25T09:18:00.134Z,1012.38
2022-10-25T09:19:00.731Z,1012.42
2022-10-25T09:20:01.332Z,1012.41
2022-10-25T09:21:01.928Z,1012.33
2022-10-25T09:22:02.530Z,1012.33
2022-10-25T09:23:03.195Z,1012.39
2022-10-25T09:24:03.790Z,1012.43
2022-10-25T09:25:04.388Z,1012.50
2022-10-25T09:26:04.990Z,1012.51
2022-10-25T09:27:05.587Z,1012.55
2022-10-25T09:28:06.186Z,1012.63
2022-10-25T09:29:06.786Z,1012.54
2022-10-25T09:30:07.642Z,1012.75
2022-10-25T09:31:08.384Z,1012.68
2022-10-25T09:32:08.980Z,1012.66
2022-10-25T09:33:09.659Z,1012.70
2022-10-25T09:34:10.246Z,1012.62
2022-10-25T09:35:10.908Z,1012.77
2022-10-25T09:36:11.507Z,1012.65
2022-10-25T09:37:12.106Z,1012.82
2022-10-25T09:38:12.706Z,1012.84
2022-10-25T09:39:15.778Z,1012.87
2022-10-25T09:40:14.966Z,1012.96
2022-10-25T09:41:15.569Z,1012.93
2022-10-25T09:42:16.169Z,1012.89
2022-10-25T09:43:16.766Z,1013.04
2022-10-25T09:44:17.364Z,1012.96
2022-10-25T09:45:17.969Z,1013.04
2022-10-25T09:46:18.565Z,1013.10
2022-10-25T09:47:19.167Z,1012.93
2022-10-25T09:48:19.768Z,1012.99
2022-10-25T09:49:20.371Z,1012.98
2022-10-25T09:50:20.969Z,1013.01
2022-10-25T09:51:21.571Z,1012.96
2022-10-25T09:52:22.171Z,1013.05
2022-10-25T09:53:24.255Z,1013.03
2022-10-25T09:54:24.360Z,1013.06
2022-10-25T09:55:24.960Z,1013.16
2022-10-25T09:56:25.708Z,1013.10
2022-10-25T09:57:26.304Z,1013.32
2022-10-25T09:58:26.901Z,1013.34
2022-10-25T09:59:27.501Z,1013.24
2022-10-25T10:00:28.098Z,1013.38
2022-10-25T10:01:28.885Z,1013.53
2022-10-25T10:02:29.619Z,1013.42
2022-10-25T10:03:30.301Z,1013.58
2022-10-25T10:04:30.947Z,1013.38
2022-10-25T10:05:31.549Z,1013.29
2022-10-25T10:06:32.142Z,1013.29
2022-10-25T10:07:32.742Z,1013.27
2022-10-25T10:08:33.415Z,1013.23
2022-10-25T10:09:34.015Z,1013.27
2022-10-25T10:10:34.610Z,1013.22
2022-10-25T10:11:35.256Z,1013.25
2022-10-25T10:12:35.851Z,1013.34
2022-10-25T10:13:36.455Z,1013.29
2022-10-25T10:14:37.057Z,1013.29
2022-10-25T10:15:38.581Z,1013.35
2022-10-25T10:16:39.177Z,1013.35
2022-10-25T10:17:39.826Z,1013.26
2022-10-25T10:18:40.426Z,1013.37
2022-10-25T10:19:41.026Z,1013.40
2022-10-25T10:20:41.627Z,1013.30
2022-10-25T10:21:42.224Z,1013.34
2022-10-25T10:22:42.878Z,1013.42
2022-10-25T10:23:43.489Z,1013.30
2022-10-25T10:24:44.088Z,1013.28
2022-10-25T10:25:44.686Z,1013.37
2022-10-25T10:26:45.281Z,1013.31
2022-10-25T10:27:46.208Z,1013.33
2022-10-25T10:28:46.948Z,1013.45
2022-10-25T10:29:47.549Z,1013.44
2022-10-25T10:30:48.949Z,1013.37
2022-10-25T10:31:49.555Z,1013.42
2022-10-25T10:32:51.749Z,1013.33
2022-10-25T10:33:51.743Z,1013.39
2022-10-25T10:34:52.338Z,1013.53
2022-10-25T10:35:52.936Z,1013.60
2022-10-25T10:36:53.736Z,1013.60
2022-10-25T10:37:54.335Z,1013.55
2022-10-25T10:38:54.930Z,1013.51
2022-10-25T10:39:55.533Z,1013.54
2022-10-25T10:40:56.203Z,1013.55
2022-10-25T10:41:56.872Z,1013.59
2022-10-25T10:42:59.151Z,1013.60
2022-10-25T10:43:58.140Z,1013.59
2022-10-25T10:44:58.742Z,1013.66
2022-10-25T10:45:59.349Z,1013.57
2022-10-25T10:47:00.017Z,1013.73
2022-10-25T10:48:00.617Z,1013.72
2022-10-25T10:49:01.213Z,1013.61
2022-10-25T10:50:01.816Z,1013.76
2022-10-25T10:51:02.414Z,1013.64
2022-10-25T10:52:03.014Z,1013.69
2022-10-25T10:53:03.708Z,1013.65
2022-10-25T10:54:04.289Z,1013.61
2022-10-25T10:55:04.888Z,1013.76
2022-10-25T10:56:05.491Z,1013.69
2022-10-25T10:57:06.099Z,1013.87
2022-10-25T10:58:06.691Z,1013.87
2022-10-25T10:59:07.293Z,1013.69
2022-10-25T11:00:07.939Z,1013.76
2022-10-25T11:01:08.711Z,1013.79
2022-10-25T11:02:09.640Z,1013.77
2022-10-25T11:03:10.388Z,1013.88
2022-10-25T11:04:10.988Z,1013.82
2022-10-25T11:05:11.590Z,1013.85
2022-10-25T11:06:12.189Z,1013.88
2022-10-25T11:07:12.789Z,1013.96
2022-10-25T11:08:13.385Z,1014.05
2022-10-25T11:09:14.098Z,1014.04
2022-10-25T11:10:14.693Z,1014.04
2022-10-25T11:11:15.292Z,1013.98
2022-10-25T11:12:15.893Z,1013.98
2022-10-25T11:13:16.493Z,1014.08
2022-10-25T11:14:17.162Z,1014.16
2022-10-25T11:15:17.758Z,1014.05
2022-10-25T11:16:18.406Z,1013.98
2022-10-25T11:17:19.004Z,1014.06
2022-10-25T11:18:19.602Z,1014.25
2022-10-25T11:19:21.054Z,1014.20
2022-10-25T11:20:21.743Z,1014.19
2022-10-25T11:21:22.319Z,1014.14
2022-10-25T11:22:22.991Z,1014.30
2022-10-25T11:23:23.595Z,1014.13
2022-10-25T11:24:24.195Z,1014.21
2022-10-25T11:25:24.801Z,1014.20
2022-10-25T11:26:25.404Z,1014.23
2022-10-25T11:27:26.006Z,1014.23
2022-10-25T11:28:26.659Z,1014.29
2022-10-25T11:29:27.261Z,1014.31
2022-10-25T11:30:28.711Z,1014.31
2022-10-25T11:31:29.316Z,1014.35
2022-10-25T11:32:30.031Z,1014.49
2022-10-25T11:33:31.491Z,1014.38
2022-10-25T11:34:32.090Z,1014.30
2022-10-25T11:35:32.778Z,1014.36
2022-10-25T11:36:33.352Z,1014.47
2022-10-25T11:37:34.799Z,1014.51
2022-10-25T11:38:35.400Z,1014.39
2022-10-25T11:39:36.052Z,1014.41
2022-10-25T11:40:36.649Z,1014.38
2022-10-25T11:41:37.248Z,1014.43
2022-10-25T11:42:37.915Z,1014.53
2022-10-25T11:43:38.512Z,1014.54
2022-10-25T11:44:41.752Z,1014.52
2022-10-25T11:45:40.706Z,1014.43
2022-10-25T11:46:42.106Z,1014.58
2022-10-25T11:47:43.449Z,1014.54
2022-10-25T11:48:44.102Z,1014.63
2022-10-25T11:49:44.711Z,1014.53
2022-10-25T11:50:45.395Z,1014.67
2022-10-25T11:51:47.036Z,1014.56
2022-10-25T11:52:48.911Z,1014.54
2022-10-25T11:53:49.233Z,1014.59
2022-10-25T11:54:49.833Z,1014.59
2022-10-25T11:55:50.438Z,1014.64
2022-10-25T11:56:51.038Z,1014.58
2022-10-25T11:57:51.640Z,1014.68
2022-10-25T11:58:52.243Z,1014.54
2022-10-25T11:59:52.850Z,1014.54
2022-10-25T12:00:53.447Z,1014.59
2022-10-25T12:01:54.051Z,1014.59
2022-10-25T12:02:54.672Z,1014.69
2022-10-25T12:03:55.321Z,1014.66
2022-10-25T12:04:55.921Z,1014.60
2022-10-25T12:05:56.607Z,1014.60
2022-10-25T12:06:57.182Z,1014.69
2022-10-25T12:07:57.784Z,1014.73
2022-10-25T12:08:58.380Z,1014.61
2022-10-25T12:09:58.979Z,1014.62
2022-10-25T12:10:59.581Z,1014.63
2022-10-25T12:12:00.182Z,1014.61
2022-10-25T12:13:00.784Z,1014.59
2022-10-25T12:14:01.392Z,1014.54
2022-10-25T12:15:01.993Z,1014.69
2022-10-25T12:16:02.589Z,1014.66